createdAt,value
2018-06-13T00:03:58.847Z,17.50
2018-06-13T00:09:02.151Z,17.40
2018-06-13T00:14:05.631Z,17.50
2018-06-13T00:19:08.905Z,17.50
2018-06-13T00:24:12.170Z,17.50
2018-06-13T00:29:15.443Z,17.40
2018-06-13T00:34:18.695Z,17.30
2018-06-13T00:39:21.941Z,17.20
2018-06-13T00:44:25.202Z,17.10
2018-06-13T00:49:28.440Z,16.90
2018-06-13T00:54:31.684Z,16.90
2018-06-13T00:59:35.383Z,16.90
2018-06-13T01:04:38.668Z,16.90
2018-06-13T01:09:41.951Z,16.90
2018-06-13T01:14:45.203Z,16.90
2018-06-13T01:19:48.527Z,16.80
2018-06-13T01:24:51.788Z,16.80
2018-06-13T01:29:55.044Z,16.80
2018-06-13T01:34:58.331Z,16.80
2018-06-13T01:40:01.596Z,16.80
2018-06-13T01:45:05.132Z,16.80
2018-06-13T01:50:08.407Z,16.80
2018-06-13T01:55:11.666Z,16.80
2018-06-13T02:00:14.928Z,16.80
2018-06-13T02:05:18.201Z,16.70
2018-06-13T02:10:21.454Z,16.70
2018-06-13T02:15:24.733Z,16.70
2018-06-13T02:20:27.995Z,16.60
2018-06-13T02:25:31.263Z,16.50
2018-06-13T02:30:34.511Z,16.40
2018-06-13T02:45:43.809Z,16.40
2018-06-13T02:50:47.079Z,16.40
2018-06-13T02:55:50.339Z,16.30
2018-06-13T03:00:54.448Z,16.30
2018-06-13T03:05:57.701Z,16.30
2018-06-13T03:11:00.964Z,16.30
2018-06-13T03:16:04.248Z,16.30
2018-06-13T03:21:07.516Z,16.30
2018-06-13T03:26:10.789Z,16.30
2018-06-13T03:31:14.055Z,16.20
2018-06-13T03:36:17.308Z,16.20
2018-06-13T03:41:20.644Z,16.20
2018-06-13T03:46:23.931Z,16.20
2018-06-13T03:51:27.213Z,16.10
2018-06-13T03:56:30.472Z,16.10
2018-06-13T04:01:33.862Z,16.10
2018-06-13T04:06:37.228Z,16.10
2018-06-13T04:11:40.522Z,16.10
2018-06-13T04:16:44.935Z,16.10
2018-06-13T04:21:48.182Z,16.00
2018-06-13T04:31:55.489Z,15.80
2018-06-13T04:36:58.881Z,15.70
2018-06-13T04:42:03.321Z,15.70
2018-06-13T04:52:11.882Z,15.50
2018-06-13T05:02:18.217Z,15.40
2018-06-13T05:07:21.539Z,15.30
2018-06-13T05:12:24.827Z,15.20
2018-06-13T05:17:28.100Z,15.10
2018-06-13T05:22:31.376Z,15.00
2018-06-13T05:27:34.680Z,15.00
2018-06-13T05:32:38.012Z,15.00
2018-06-13T05:37:41.287Z,15.00
2018-06-13T05:42:44.587Z,15.00
2018-06-13T05:47:47.895Z,15.00
2018-06-13T05:52:51.224Z,15.10
2018-06-13T05:57:54.512Z,15.10
2018-06-13T06:02:57.780Z,15.20
2018-06-13T06:08:01.051Z,15.20
2018-06-13T06:13:04.413Z,15.20
2018-06-13T06:18:07.664Z,15.30
2018-06-13T06:23:10.965Z,15.30
2018-06-13T06:28:14.240Z,15.40
2018-06-13T06:33:17.572Z,15.40
2018-06-13T06:38:20.807Z,15.40
2018-06-13T06:43:24.083Z,15.50
2018-06-13T06:48:27.340Z,15.50
2018-06-13T06:53:30.640Z,15.50
2018-06-13T06:58:33.907Z,15.60
2018-06-13T07:03:37.187Z,15.60
2018-06-13T07:08:40.442Z,15.70
2018-06-13T07:13:43.718Z,15.80
2018-06-13T07:18:47.004Z,15.90
2018-06-13T07:23:50.277Z,16.10
2018-06-13T07:28:53.560Z,16.20
2018-06-13T07:33:56.900Z,16.10
2018-06-13T07:39:00.193Z,16.20
2018-06-13T07:44:03.454Z,16.10
2018-06-13T07:49:06.719Z,16.00
2018-06-13T07:54:09.995Z,15.90
2018-06-13T07:59:13.293Z,16.00
2018-06-13T08:04:16.568Z,15.90
2018-06-13T08:09:19.843Z,16.00
2018-06-13T08:14:23.108Z,15.90
2018-06-13T08:19:26.391Z,15.80
2018-06-13T08:24:34.508Z,16.20
2018-06-13T08:29:37.781Z,16.50
2018-06-13T08:34:41.029Z,16.70
2018-06-13T08:44:47.333Z,17.20
2018-06-13T08:49:51.165Z,17.20
2018-06-13T08:54:54.449Z,17.00
2018-06-13T08:59:57.716Z,16.80
2018-06-13T09:05:00.975Z,16.80
2018-06-13T09:10:04.276Z,17.00
2018-06-13T09:15:07.566Z,17.20
2018-06-13T09:20:10.858Z,17.50
2018-06-13T09:25:14.167Z,17.80
2018-06-13T09:30:17.463Z,17.90
2018-06-13T09:40:23.740Z,17.60
2018-06-13T09:45:27.028Z,17.70
2018-06-13T09:50:30.287Z,17.60
2018-06-13T10:00:41.949Z,17.60
2018-06-13T10:05:45.216Z,18.00
2018-06-13T10:10:48.500Z,18.50
2018-06-13T10:15:51.792Z,18.50
2018-06-13T10:20:55.024Z,18.40
2018-06-13T10:25:58.255Z,18.50
2018-06-13T10:31:04.537Z,18.50
2018-06-13T10:36:07.849Z,18.90
2018-06-13T10:41:11.115Z,18.90
2018-06-13T10:46:14.400Z,18.70
2018-06-13T10:51:17.687Z,18.40
2018-06-13T10:56:20.972Z,18.20
2018-06-13T11:01:24.236Z,18.20
2018-06-13T11:06:27.521Z,17.90
2018-06-13T11:11:30.797Z,17.70
2018-06-13T11:16:34.067Z,17.50
2018-06-13T11:21:37.328Z,17.40
2018-06-13T11:26:40.648Z,17.20
2018-06-13T11:31:43.929Z,17.30
2018-06-13T11:36:47.199Z,17.70
2018-06-13T11:41:50.484Z,17.70
2018-06-13T11:46:53.749Z,17.60
2018-06-13T11:51:57.016Z,17.90
2018-06-13T11:57:00.299Z,18.30
2018-06-13T12:02:03.572Z,18.20
2018-06-13T12:07:06.862Z,18.40
2018-06-13T12:12:10.116Z,18.30
2018-06-13T12:17:13.430Z,18.20
2018-06-13T12:22:16.713Z,18.10
2018-06-13T12:27:19.988Z,18.30
2018-06-13T12:32:23.234Z,18.70
2018-06-13T12:37:26.511Z,18.50
2018-06-13T12:42:29.779Z,18.10
2018-06-13T12:47:33.037Z,18.10
2018-06-13T12:52:36.303Z,17.90
2018-06-13T12:57:39.579Z,17.70
2018-06-13T13:02:42.852Z,17.40
2018-06-13T13:07:46.132Z,17.60
2018-06-13T13:12:49.411Z,17.70
2018-06-13T13:17:52.830Z,17.60
2018-06-13T13:22:56.109Z,17.80
2018-06-13T13:27:59.418Z,17.60
2018-06-13T13:33:02.786Z,13.70
2018-06-13T13:38:06.053Z,17.70
2018-06-13T13:43:09.329Z,17.80
2018-06-13T13:48:12.859Z,17.80
2018-06-13T13:53:16.251Z,17.40
2018-06-13T13:58:19.575Z,17.40
2018-06-13T14:03:22.855Z,17.50
2018-06-13T14:08:26.139Z,17.60
2018-06-13T14:13:29.413Z,17.70
2018-06-13T14:18:32.716Z,17.40
2018-06-13T14:23:35.993Z,17.30
2018-06-13T14:28:39.260Z,17.50
2018-06-13T14:33:42.527Z,17.50
2018-06-13T14:38:45.805Z,17.70
2018-06-13T14:43:49.077Z,17.70
2018-06-13T14:48:52.352Z,17.70
2018-06-13T14:53:57.079Z,17.60
2018-06-13T14:59:01.621Z,17.80
2018-06-13T15:04:04.895Z,17.90
2018-06-13T15:09:09.790Z,18.00
2018-06-13T15:14:13.051Z,17.80
2018-06-13T15:19:16.371Z,17.70
2018-06-13T15:24:19.686Z,17.50
2018-06-13T15:29:22.965Z,17.50
2018-06-13T15:34:26.341Z,17.40
2018-06-13T15:39:29.721Z,17.40
2018-06-13T15:49:36.151Z,17.20
2018-06-13T15:54:39.433Z,17.10
2018-06-13T15:59:42.684Z,16.90
2018-06-13T16:04:46.118Z,16.80
2018-06-13T16:09:49.734Z,16.90
2018-06-13T16:14:53.017Z,16.90
2018-06-13T16:24:59.351Z,16.70
2018-06-13T16:30:02.637Z,16.60
2018-06-13T16:40:08.955Z,16.50
2018-06-13T16:50:27.882Z,16.80
2018-06-13T16:55:31.184Z,16.80
2018-06-13T17:00:34.781Z,16.50
2018-06-13T17:05:38.051Z,16.50
2018-06-13T17:10:41.828Z,16.40
2018-06-13T17:20:48.097Z,16.20
2018-06-13T17:25:51.668Z,16.20
2018-06-13T17:30:55.306Z,16.20
2018-06-13T17:35:58.659Z,16.30
2018-06-13T17:41:02.521Z,16.30
2018-06-13T17:51:08.876Z,16.10
2018-06-13T17:56:12.147Z,16.20
2018-06-13T18:06:19.413Z,16.00
2018-06-13T18:11:23.320Z,16.00
2018-06-13T18:16:26.870Z,16.00
2018-06-13T18:21:30.721Z,16.00
2018-06-13T18:26:34.627Z,16.00
2018-06-13T18:31:38.584Z,16.10
2018-06-13T18:36:42.302Z,16.00
2018-06-13T18:41:45.859Z,16.00
2018-06-13T18:46:49.543Z,16.00
2018-06-13T18:51:53.052Z,15.90
2018-06-13T18:56:56.341Z,15.90
2018-06-13T19:01:59.715Z,15.80
2018-06-13T19:07:03.119Z,15.80
2018-06-13T19:12:06.713Z,15.80
2018-06-13T19:17:10.014Z,15.80
2018-06-13T19:22:13.324Z,15.80
2018-06-13T19:27:16.629Z,15.80
2018-06-13T19:32:20.008Z,15.70
2018-06-13T19:37:23.412Z,15.70
2018-06-13T19:42:26.744Z,15.60
2018-06-13T19:47:35.494Z,15.60
2018-06-13T19:52:44.268Z,15.50
2018-06-13T19:57:47.584Z,15.40
2018-06-13T20:02:56.232Z,15.40
2018-06-13T20:07:59.516Z,15.40
2018-06-13T20:13:08.119Z,15.40
2018-06-13T20:18:16.823Z,15.40
2018-06-13T20:23:20.091Z,15.30
2018-06-13T20:28:28.721Z,15.40
2018-06-13T20:33:32.039Z,15.30
2018-06-13T20:38:35.487Z,15.30
2018-06-13T20:43:39.013Z,15.30
2018-06-13T20:48:42.285Z,15.20
2018-06-13T20:53:45.582Z,15.20
2018-06-13T20:58:48.936Z,15.20
2018-06-13T21:03:52.375Z,15.10
2018-06-13T21:08:55.746Z,15.10
2018-06-13T21:19:08.109Z,15.20
2018-06-13T21:29:14.429Z,15.10
2018-06-13T21:34:17.699Z,15.10
2018-06-13T21:39:20.993Z,15.00
2018-06-13T21:44:24.260Z,15.00
2018-06-13T21:49:27.536Z,15.00
2018-06-13T21:59:33.889Z,15.00
2018-06-13T22:04:37.245Z,14.90
2018-06-13T22:09:40.515Z,14.90
2018-06-13T22:19:51.413Z,14.80
2018-06-13T22:24:54.716Z,14.80
2018-06-13T22:29:58.284Z,14.80
2018-06-13T22:35:01.825Z,14.70
2018-06-13T22:40:05.284Z,14.70
2018-06-13T22:45:08.628Z,14.70
2018-06-13T22:50:11.897Z,14.60
2018-06-13T22:55:15.183Z,14.60
2018-06-13T23:00:58.841Z,14.60
2018-06-13T23:06:04.151Z,14.60
2018-06-13T23:16:10.425Z,14.50
2018-06-13T23:21:13.696Z,14.40
2018-06-13T23:26:18.996Z,14.50
2018-06-13T23:31:22.353Z,14.60
2018-06-13T23:36:25.654Z,14.60
2018-06-13T23:41:29.063Z,14.50
2018-06-13T23:46:32.365Z,14.50
2018-06-13T23:51:35.635Z,14.50
2018-06-13T23:56:38.987Z,14.40
